DPS weather

Ngurah Rai (Bali) International Airport
Denpasar-Bali Island, Bali, Indonesia

Public forecast

Using degrees Celsius for public forecast. Weather courtesy of forecast.io.

Current aviation weather report (METAR) for Ngurah Rai (Bali) International Airport

Retrieved 2019/10/15 07:30 UTC (1 minute ago):

WADD 150730Z 15014KT 9999 SCT017 29/24 Q1010 NOSIG

Aviation forecast (TAF) for Ngurah Rai (Bali) International Airport

Retrieved 2019/10/15 06:12 UTC (1 hour ago):

TAF WADD 150500Z 1506/1606 14010KT 9999 SCT016